Time;durP1;ratioP1;P1;durP2;ratioP2;P2;SDS_P1;SDS_P2;PMS_P1;PMS_P2;Temp;Humidity;BMP_temperature;BMP_pressure;BME280_temperature;BME280_humidity;BME280_pressure;Samples;Min_cycle;Max_cycle;Signal;HPM_P1;HPM_P2
2021/12/19 00:01:51;;;;;;;129.32;77.88;;;;;;;;;;5133814;27;20499;-64
2021/12/19 00:04:28;;;;;;;130.55;80.82;;;179.70;2252.80;;;;;;5133823;27;20030;-66
2021/12/19 00:09:42;;;;;;;117.47;72.50;;;;;;;;;;5134287;27;20038;-62
2021/12/19 00:12:08;;;;;;;120.65;71.70;;;;;;;;;;5133415;27;20098;-66
2021/12/19 00:14:34;;;;;;;115.85;68.80;;;179.70;2252.80;;;;;;5133550;27;20420;-64
2021/12/19 00:17:03;;;;;;;112.72;66.82;;;179.80;2252.80;;;;;;5133535;27;20083;-61
2021/12/19 00:19:31;;;;;;;114.55;67.75;;;179.80;2252.80;;;;;;5133993;27;20437;-66
2021/12/19 00:21:59;;;;;;;137.85;78.18;;;179.80;2252.80;;;;;;5134887;27;20023;-66
2021/12/19 00:24:25;;;;;;;108.95;66.70;;;179.80;2252.80;;;;;;5133448;27;20474;-66
2021/12/19 00:26:53;;;;;;;106.20;62.95;;;179.80;2252.80;;;;;;5133049;27;20076;-66
2021/12/19 00:29:19;;;;;;;114.30;70.00;;;179.80;2252.80;;;;;;5133168;27;20026;-67
2021/12/19 00:31:46;;;;;;;109.88;70.03;;;179.80;2252.80;;;;;;5133326;27;20497;-65
2021/12/19 00:34:13;;;;;;;110.70;68.55;;;179.80;2252.80;;;;;;5133155;27;20041;-67
2021/12/19 00:36:39;;;;;;;108.72;66.95;;;179.70;2252.80;;;;;;5133188;27;20031;-64
2021/12/19 00:39:05;;;;;;;103.78;66.57;;;179.80;2252.80;;;;;;5132907;27;20111;-63
2021/12/19 00:41:30;;;;;;;97.13;63.15;;;179.80;2252.80;;;;;;5114122;28;20129;-63
2021/12/19 00:44:08;;;;;;;100.43;63.58;;;;;;;;;;5133016;27;20019;-64
2021/12/19 00:46:43;;;;;;;102.95;66.43;;;179.80;2252.80;;;;;;5133219;27;20062;-66
2021/12/19 00:49:11;;;;;;;108.22;66.90;;;179.80;2252.80;;;;;;5132798;28;20079;-67
2021/12/19 00:51:37;;;;;;;112.00;69.65;;;179.80;2252.80;;;;;;5132923;28;20025;-67
2021/12/19 00:54:08;;;;;;;103.68;64.00;;;179.70;2252.80;;;;;;5132595;28;20031;-64
2021/12/19 00:56:40;;;;;;;102.30;63.42;;;179.80;2252.80;;;;;;5114496;28;20056;-67
2021/12/19 00:59:07;;;;;;;105.10;62.20;;;179.80;2252.80;;;;;;5133049;28;20083;-64
2021/12/19 01:01:34;;;;;;;104.95;64.30;;;179.80;2252.80;;;;;;5133079;28;20023;-67
2021/12/19 01:04:01;;;;;;;107.22;63.22;;;;;;;;;;5132922;28;20461;-66
2021/12/19 01:06:28;;;;;;;120.43;74.00;;;;;;;;;;5133062;28;20461;-66
2021/12/19 01:08:54;;;;;;;154.00;96.40;;;;;;;;;;5132550;28;20023;-67
2021/12/19 01:11:21;;;;;;;222.30;131.57;;;;;;;;;;5132849;28;20035;-66
2021/12/19 01:13:47;;;;;;;206.80;124.38;;;;;;;;;;5133181;28;20566;-68
2021/12/19 01:16:14;;;;;;;165.30;107.88;;;;;;;;;;5132987;27;20132;-66
2021/12/19 01:18:40;;;;;;;166.80;107.65;;;;;;;;;;5136660;27;20023;-65
2021/12/19 01:21:06;;;;;;;183.82;115.15;;;;;;;;;;5137187;27;20030;-67
2021/12/19 01:23:32;;;;;;;195.15;125.32;;;;;;;;;;5136741;27;20102;-67
2021/12/19 01:26:01;;;;;;;223.32;131.20;;;;;;;;;;5136720;27;20019;-68
2021/12/19 01:28:27;;;;;;;211.70;128.30;;;;;;;;;;5136680;27;20388;-68
2021/12/19 01:30:53;;;;;;;211.68;125.93;;;;;;;;;;5136424;27;20126;-67
2021/12/19 01:33:19;;;;;;;217.38;133.38;;;;;;;;;;5136629;27;20388;-68
2021/12/19 01:35:45;;;;;;;221.68;134.00;;;;;;;;;;5136457;27;20039;-68
2021/12/19 01:38:11;;;;;;;222.10;131.48;;;;;;;;;;5136284;27;20030;-68
2021/12/19 01:40:37;;;;;;;215.73;135.88;;;;;;;;;;5136293;27;20028;-68
2021/12/19 01:43:04;;;;;;;220.13;136.23;;;;;;;;;;5136584;27;20409;-65
2021/12/19 01:45:32;;;;;;;196.77;121.97;;;;;;;;;;5136412;27;20054;-66
2021/12/19 01:47:58;;;;;;;195.00;119.65;;;;;;;;;;5117764;27;20020;-67
2021/12/19 01:50:25;;;;;;;186.00;118.35;;;;;;;;;;5136212;27;20098;-68
2021/12/19 01:52:51;;;;;;;204.38;127.47;;;;;;;;;;5136753;27;20034;-68
2021/12/19 01:55:18;;;;;;;208.70;127.82;;;;;;;;;;5136109;27;20023;-69
2021/12/19 01:57:44;;;;;;;188.90;119.18;;;;;;;;;;5136205;27;20110;-68
2021/12/19 02:00:21;;;;;;;173.73;111.20;;;;;;;;;;5136212;27;20027;-67
2021/12/19 02:02:47;;;;;;;155.43;101.22;;;179.30;2252.80;;;;;;5135976;27;20030;-66
2021/12/19 02:05:13;;;;;;;149.23;97.80;;;179.20;2252.80;;;;;;5135901;27;20023;-65
2021/12/19 02:07:43;;;;;;;145.35;93.88;;;179.40;2252.80;;;;;;5135661;27;20047;-67
2021/12/19 02:10:09;;;;;;;127.05;80.68;;;;;;;;;;5135593;27;20025;-63
2021/12/19 02:12:36;;;;;;;94.68;59.80;;;;;;;;;;5117513;27;20027;-70
2021/12/19 02:15:02;;;;;;;91.30;58.03;;;;;;;;;;5136189;27;20106;-67
2021/12/19 02:17:28;;;;;;;93.68;60.20;;;;;;;;;;5135862;27;20088;-67
2021/12/19 02:19:56;;;;;;;106.57;68.72;;;;;;;;;;5135710;27;20027;-68
2021/12/19 02:22:22;;;;;;;118.07;73.95;;;;;;;;;;5136026;27;20020;-67
2021/12/19 02:24:49;;;;;;;121.38;75.57;;;;;;;;;;5135400;27;20080;-65
2021/12/19 02:27:15;;;;;;;124.72;77.80;;;;;;;;;;5135437;27;20110;-67
2021/12/19 02:29:41;;;;;;;113.93;71.53;;;;;;;;;;5134384;27;20043;-66
2021/12/19 02:32:07;;;;;;;94.85;57.38;;;179.80;2252.80;;;;;;5135492;27;20019;-67
2021/12/19 02:34:39;;;;;;;106.95;68.72;;;179.70;2252.80;;;;;;5135475;27;20073;-68
2021/12/19 02:37:17;;;;;;;96.88;62.10;;;179.70;2252.80;;;;;;5135254;27;20067;-69
2021/12/19 02:48:13;;;;;;;82.55;50.90;;;180.00;2252.80;;;;;;5135115;27;20072;-65
2021/12/19 02:50:46;;;;;;;83.10;50.80;;;180.00;2252.80;;;;;;5135168;27;20490;-66
2021/12/19 02:53:12;;;;;;;54.30;32.97;;;180.00;2252.80;;;;;;5134728;27;20053;-68
2021/12/19 02:55:39;;;;;;;54.95;36.53;;;180.10;2252.80;;;;;;5134898;27;20063;-63
2021/12/19 02:58:05;;;;;;;72.90;47.50;;;204.80;2252.80;;;;;;5134797;27;20023;-65
2021/12/19 03:00:30;;;;;;;57.20;35.42;;;180.10;2252.80;;;;;;5135017;27;20029;-65
2021/12/19 03:02:57;;;;;;;61.83;39.05;;;180.10;2252.80;;;;;;5135093;27;20370;-66
2021/12/19 03:05:23;;;;;;;71.85;44.65;;;204.80;2252.80;;;;;;5134749;27;20023;-62
2021/12/19 03:07:50;;;;;;;63.78;39.72;;;204.80;2252.80;;;;;;5134788;27;20079;-67
2021/12/19 03:13:18;;;;;;;60.92;34.65;;;204.80;2252.80;;;;;;5135259;27;20092;-64
2021/12/19 03:18:30;;;;;;;42.00;27.60;;;;;;;;;;5134712;27;20086;-69
2021/12/19 03:20:56;;;;;;;32.35;18.00;;;;;;;;;;5134357;27;20039;-67
2021/12/19 03:23:22;;;;;;;31.15;19.52;;;;;;;;;;5134363;27;20460;-63
2021/12/19 03:25:48;;;;;;;31.10;18.23;;;;;;;;;;5134346;27;20552;-69
2021/12/19 03:28:15;;;;;;;22.70;15.35;;;;;;;;;;5134327;27;20030;-69
2021/12/19 03:30:42;;;;;;;25.92;16.98;;;;;;;;;;5134102;27;20047;-67
2021/12/19 03:33:09;;;;;;;29.35;17.35;;;;;;;;;;5134237;27;20051;-66
2021/12/19 03:35:35;;;;;;;33.00;19.40;;;;;;;;;;5134102;27;20045;-70
2021/12/19 03:38:04;;;;;;;32.17;20.00;;;;;;;;;;5133935;27;20079;-67
2021/12/19 03:40:37;;;;;;;37.22;18.98;;;;;;;;;;5133929;27;20030;-67
2021/12/19 03:43:08;;;;;;;45.53;25.98;;;;;;;;;;5134171;27;20027;-63
2021/12/19 03:45:34;;;;;;;31.58;19.45;;;;;;;;;;5134109;27;20091;-68
2021/12/19 03:48:01;;;;;;;43.45;26.60;;;;;;;;;;5133793;27;20425;-67
2021/12/19 03:50:28;;;;;;;26.02;17.92;;;;;;;;;;5133862;27;20026;-66
2021/12/19 03:52:55;;;;;;;37.58;24.02;;;;;;;;;;5133698;27;20019;-64
2021/12/19 03:55:24;;;;;;;28.20;19.42;;;;;;;;;;5133640;27;20047;-68
2021/12/19 03:57:50;;;;;;;28.15;17.50;;;;;;;;;;5134083;27;20037;-67
2021/12/19 04:00:18;;;;;;;31.15;19.67;;;;;;;;;;5133711;27;20065;-66
2021/12/19 04:02:46;;;;;;;36.03;22.85;;;;;;;;;;5133595;27;20422;-69
2021/12/19 04:05:12;;;;;;;39.47;24.00;;;;;;;;;;5133368;27;20472;-65
2021/12/19 04:07:38;;;;;;;31.15;21.25;;;;;;;;;;5133961;27;20032;-68
2021/12/19 04:10:05;;;;;;;24.48;17.30;;;;;;;;;;5115104;27;20031;-66
2021/12/19 04:12:31;;;;;;;24.80;17.38;;;;;;;;;;5133715;27;20500;-62
2021/12/19 04:14:57;;;;;;;30.63;21.77;;;;;;;;;;5133435;27;20378;-70
2021/12/19 04:17:23;;;;;;;31.65;21.77;;;;;;;;;;5133106;27;20031;-68
2021/12/19 04:19:49;;;;;;;24.30;15.15;;;179.80;2252.80;;;;;;5133484;27;20054;-73
2021/12/19 04:22:15;;;;;;;23.05;15.95;;;;;;;;;;5133372;27;20054;-64
2021/12/19 04:24:41;;;;;;;24.15;15.40;;;;;;;;;;5134285;27;20030;-72
2021/12/19 04:27:07;;;;;;;28.25;18.67;;;;;;;;;;5133217;27;20023;-62
2021/12/19 04:29:33;;;;;;;30.40;19.52;;;;;;;;;;5133178;27;20019;-63
2021/12/19 04:31:59;;;;;;;27.77;19.58;;;;;;;;;;5133431;27;20031;-62
2021/12/19 04:34:26;;;;;;;30.23;22.17;;;;;;;;;;5133376;27;20096;-70
2021/12/19 04:36:59;;;;;;;34.05;21.90;;;;;;;;;;5133018;27;20138;-64
2021/12/19 04:58:23;;;;;;;26.60;17.52;;;;;;;;;;5139896;27;20384;-64
2021/12/19 05:06:16;;;;;;;30.00;19.17;;;;;;;;;;5099048;28;20455;-63
2021/12/19 05:14:16;;;;;;;36.00;21.85;;;179.40;2252.80;;;;;;5099330;28;20035;-66
2021/12/19 05:16:44;;;;;;;31.80;20.58;;;179.40;2252.80;;;;;;5098673;28;20557;-65
2021/12/19 05:19:30;;;;;;;25.98;18.13;;;179.50;2252.80;;;;;;5131135;27;20056;-62
2021/12/19 05:22:00;;;;;;;28.45;19.90;;;179.60;2252.80;;;;;;5140040;27;20044;-67
2021/12/19 05:27:11;;;;;;;23.25;17.90;;;179.50;2252.80;;;;;;5139566;27;20057;-68
2021/12/19 05:29:38;;;;;;;29.60;18.83;;;179.50;2252.80;;;;;;5139876;27;20084;-65
2021/12/19 05:32:05;;;;;;;26.45;16.98;;;179.50;2252.80;;;;;;5139623;27;20027;-69
2021/12/19 05:34:31;;;;;;;27.17;18.70;;;179.60;2252.80;;;;;;5139619;27;20034;-69
2021/12/19 05:45:14;;;;;;;40.38;27.42;;;;;;;;;;5139511;27;20050;-66
2021/12/19 05:47:45;;;;;;;42.13;27.85;;;;;;;;;;5139101;27;20022;-62
2021/12/19 05:50:11;;;;;;;40.15;25.40;;;;;;;;;;5139295;27;20027;-66
2021/12/19 05:52:37;;;;;;;43.15;25.30;;;205.10;2252.80;;;;;;5139194;27;20015;-66
2021/12/19 05:55:04;;;;;;;43.90;24.88;;;205.20;2252.80;;;;;;5138896;27;20034;-62
2021/12/19 05:57:30;;;;;;;43.50;27.10;;;205.20;2252.80;;;;;;5139059;27;20039;-65
2021/12/19 05:59:55;;;;;;;44.85;29.25;;;205.20;2252.80;;;;;;5139285;27;20023;-66
2021/12/19 06:02:21;;;;;;;56.97;37.88;;;205.30;2252.80;;;;;;5139122;27;20034;-65
2021/12/19 06:04:47;;;;;;;85.20;57.40;;;205.30;2252.80;;;;;;5134832;27;20048;-62
2021/12/19 06:07:12;;;;;;;178.20;121.93;;;205.20;2252.80;;;;;;5135730;27;20023;-65
2021/12/19 06:09:38;;;;;;;179.90;128.63;;;205.30;2252.80;;;;;;5135735;27;20461;-65
2021/12/19 06:12:05;;;;;;;121.40;88.18;;;205.30;2252.80;;;;;;5135652;27;20027;-63
2021/12/19 06:14:34;;;;;;;107.53;74.47;;;205.30;2252.80;;;;;;5135969;27;20118;-68
2021/12/19 06:17:01;;;;;;;92.60;61.38;;;205.30;2252.80;;;;;;5135677;27;20035;-67
2021/12/19 06:19:27;;;;;;;82.13;55.65;;;205.40;2252.80;;;;;;5135499;27;20110;-67
2021/12/19 06:21:53;;;;;;;79.78;50.60;;;205.40;2252.80;;;;;;5135560;27;20027;-66
2021/12/19 06:24:20;;;;;;;97.20;62.58;;;205.10;2252.80;;;;;;5135977;27;20019;-64
2021/12/19 06:26:45;;;;;;;85.55;57.28;;;204.90;2252.80;;;;;;5135743;27;20064;-68
2021/12/19 06:29:12;;;;;;;84.90;57.90;;;204.90;2252.80;;;;;;5135745;27;20031;-68
2021/12/19 06:31:38;;;;;;;69.55;44.08;;;204.80;2252.80;;;;;;5135351;27;20039;-67
2021/12/19 06:34:04;;;;;;;62.40;41.72;;;205.00;2252.80;;;;;;5135400;27;20019;-66
2021/12/19 06:36:30;;;;;;;45.65;31.90;;;204.90;2252.80;;;;;;5135210;27;20038;-68
2021/12/19 06:38:56;;;;;;;34.33;24.05;;;205.00;2252.80;;;;;;5135106;27;20075;-67
2021/12/19 06:41:22;;;;;;;30.02;21.67;;;204.80;2252.80;;;;;;5135070;27;20110;-67
2021/12/19 06:43:48;;;;;;;32.30;22.15;;;180.10;2252.80;;;;;;5135534;27;20442;-67
2021/12/19 06:46:14;;;;;;;38.60;27.63;;;180.10;2252.80;;;;;;5135315;27;20395;-65
2021/12/19 06:48:40;;;;;;;48.92;33.95;;;205.00;2252.80;;;;;;5134710;27;20019;-67
2021/12/19 06:51:06;;;;;;;44.58;35.72;;;;;;;;;;5134978;27;20030;-64
2021/12/19 06:53:32;;;;;;;41.55;33.47;;;205.50;2252.80;;;;;;5135184;27;20703;-66
2021/12/19 06:55:58;;;;;;;44.85;32.85;;;205.50;2252.80;;;;;;5135050;27;20042;-67
2021/12/19 06:58:24;;;;;;;54.58;42.85;;;;;;;;;;5134872;27;20019;-64
2021/12/19 07:00:51;;;;;;;58.70;38.75;;;;;;;;;;5135651;27;20027;-64
2021/12/19 07:03:23;;;;;;;67.05;47.33;;;;;;;;;;5114579;27;20376;-66
2021/12/19 07:05:49;;;;;;;78.05;52.22;;;;;;;;;;5094084;28;20046;-64
2021/12/19 07:08:15;;;;;;;79.47;51.78;;;;;;;;;;5093222;28;20024;-66
2021/12/19 07:10:41;;;;;;;86.43;58.15;;;;;;;;;;5092943;28;20647;-67
2021/12/19 07:13:07;;;;;;;90.38;60.88;;;;;;;;;;5094096;28;20020;-66
2021/12/19 07:15:33;;;;;;;91.47;62.67;;;;;;;;;;5094129;28;20020;-64
2021/12/19 07:18:02;;;;;;;102.13;72.13;;;;;;;;;;5098284;27;20050;-69
2021/12/19 07:20:29;;;;;;;97.32;67.63;;;;;;;;;;5093443;28;20009;-68
2021/12/19 07:22:55;;;;;;;104.85;73.65;;;;;;;;;;5093311;28;20445;-67
2021/12/19 07:25:21;;;;;;;113.63;82.78;;;;;;;;;;5092949;28;20020;-65
2021/12/19 07:27:47;;;;;;;115.43;76.70;;;;;;;;;;5093431;28;20389;-66
2021/12/19 07:30:14;;;;;;;110.90;74.70;;;;;;;;;;5097206;28;20054;-66
2021/12/19 07:32:40;;;;;;;127.30;84.30;;;;;;;;;;5092907;28;20103;-64
2021/12/19 07:35:10;;;;;;;123.97;90.80;;;205.60;2252.80;;;;;;5092945;28;20032;-67
2021/12/19 07:37:37;;;;;;;134.85;96.53;;;230.40;2252.80;;;;;;5092323;28;20482;-69
2021/12/19 07:40:15;;;;;;;129.95;91.22;;;230.50;2252.80;;;;;;5092528;28;20016;-68
2021/12/19 07:42:41;;;;;;;110.90;81.28;;;;;;;;;;5092492;28;20023;-64
2021/12/19 07:45:08;;;;;;;106.20;78.13;;;;;;;;;;5092893;28;20042;-65
2021/12/19 07:47:34;;;;;;;96.78;71.28;;;;;;;;;;5096095;27;20058;-67
2021/12/19 07:50:00;;;;;;;104.55;77.55;;;;;;;;;;5094146;27;20056;-69
2021/12/19 07:52:26;;;;;;;207.75;137.20;;;;;;;;;;5095450;28;20023;-67
2021/12/19 07:54:52;;;;;;;181.70;126.90;;;;;;;;;;5092235;28;20102;-70
2021/12/19 07:57:18;;;;;;;143.48;101.97;;;;;;;;;;5092055;28;20034;-66
2021/12/19 07:59:44;;;;;;;146.20;102.55;;;;;;;;;;5091813;28;20385;-66
2021/12/19 08:02:11;;;;;;;137.02;95.97;;;;;;;;;;5092014;28;20047;-67
2021/12/19 08:04:37;;;;;;;122.85;86.75;;;;;;;;;;5094373;28;20127;-65
2021/12/19 08:07:04;;;;;;;107.35;73.32;;;;;;;;;;5092410;28;20028;-67
2021/12/19 08:09:38;;;;;;;101.65;68.25;;;;;;;;;;5092603;28;20032;-67
2021/12/19 08:12:05;;;;;;;106.60;76.55;;;;;;;;;;5093510;28;20085;-67
2021/12/19 08:14:31;;;;;;;124.22;90.53;;;;;;;;;;5092940;28;20024;-64
2021/12/19 08:16:57;;;;;;;104.10;70.35;;;;;;;;;;5092283;28;20508;-62
2021/12/19 08:19:23;;;;;;;79.25;53.78;;;230.80;2252.80;;;;;;5126004;27;20073;-64
2021/12/19 08:21:49;;;;;;;99.07;64.75;;;230.60;2252.80;;;;;;5098542;27;20378;-62
2021/12/19 08:24:15;;;;;;;101.80;70.13;;;230.60;2252.80;;;;;;5093173;28;20043;-61
2021/12/19 08:26:45;;;;;;;92.30;64.25;;;230.70;2252.80;;;;;;5091721;28;20107;-65
2021/12/19 08:29:11;;;;;;;122.60;82.95;;;230.50;2252.80;;;;;;5092350;28;20099;-66
2021/12/19 08:31:37;;;;;;;69.13;46.67;;;230.60;2252.80;;;;;;5092211;28;20075;-66
2021/12/19 08:34:03;;;;;;;69.57;44.90;;;230.40;2252.80;;;;;;5092130;28;20020;-62
2021/12/19 08:36:29;;;;;;;56.85;38.95;;;;;;;;;;5098719;28;20027;-64
2021/12/19 08:38:56;;;;;;;40.63;26.88;;;230.90;2252.80;;;;;;5112503;28;20473;-65
2021/12/19 08:41:22;;;;;;;47.88;29.10;;;230.70;2201.60;;;;;;5112607;28;20032;-63
2021/12/19 08:43:48;;;;;;;44.42;31.02;;;;;;;;;;5112729;28;20081;-63
2021/12/19 08:46:14;;;;;;;42.53;29.02;;;;;;;;;;5112896;28;20058;-66
2021/12/19 08:48:40;;;;;;;37.67;25.40;;;;;;;;;;5123405;27;20034;-63
2021/12/19 08:51:07;;;;;;;31.08;21.65;;;;;;;;;;5132890;28;20031;-67
2021/12/19 08:53:33;;;;;;;28.35;19.48;;;;;;;;;;5128261;28;20058;-66
2021/12/19 08:55:59;;;;;;;49.35;29.63;;;256.20;1945.60;;;;;;5096002;28;20102;-66
2021/12/19 08:58:28;;;;;;;38.70;24.52;;;256.20;1971.20;;;;;;5091505;28;20086;-65
2021/12/19 09:00:57;;;;;;;28.33;18.33;;;;;;;;;;5091761;28;20449;-69
2021/12/19 09:03:24;;;;;;;23.13;13.75;;;256.60;1920.00;;;;;;5091893;28;20016;-63
2021/12/19 09:05:50;;;;;;;23.02;15.68;;;;;;;;;;5091752;28;20047;-68
2021/12/19 09:08:16;;;;;;;26.83;19.40;;;;;;;;;;5091636;28;20028;-68
2021/12/19 09:10:43;;;;;;;31.80;22.10;;;;;;;;;;5102619;28;20492;-69
2021/12/19 09:13:09;;;;;;;29.70;22.13;;;;;;;;;;5112214;28;20032;-64
2021/12/19 09:15:35;;;;;;;34.10;23.92;;;461.20;1100.80;;;;;;5112044;28;20027;-66
2021/12/19 09:18:01;;;;;;;28.60;19.27;;;436.10;1152.00;;;;;;5079774;28;20058;-69
2021/12/19 09:20:28;;;;;;;22.23;12.73;;;;;;;;;;5111862;28;20034;-68
2021/12/19 09:22:54;;;;;;;22.95;17.75;;;;;;;;;;5111795;28;20104;-69
2021/12/19 09:25:20;;;;;;;19.35;14.10;;;;;;;;;;5112001;28;20020;-65
2021/12/19 09:27:46;;;;;;;18.00;14.02;;;;;;;;;;5112021;28;20087;-68
2021/12/19 09:30:13;;;;;;;23.63;17.08;;;;;;;;;;5111826;28;20032;-65
2021/12/19 09:32:40;;;;;;;21.42;15.30;;;;;;;;;;5111883;28;20027;-68
2021/12/19 09:35:06;;;;;;;25.02;18.35;;;;;;;;;;5112268;28;20016;-66
2021/12/19 09:37:35;;;;;;;17.02;12.27;;;;;;;;;;5111878;28;20126;-69
2021/12/19 09:40:04;;;;;;;20.45;15.20;;;538.10;870.40;;;;;;5116033;28;20022;-69
2021/12/19 09:42:34;;;;;;;26.40;18.13;;;;;;;;;;5097677;28;20027;-69
2021/12/19 09:45:01;;;;;;;22.67;14.90;;;538.50;844.80;;;;;;5115888;28;20434;-70
2021/12/19 09:47:27;;;;;;;18.73;14.55;;;;;;;;;;5115933;27;20481;-68
2021/12/19 09:49:54;;;;;;;18.17;14.05;;;;;;;;;;5135751;27;20517;-68
2021/12/19 09:52:20;;;;;;;16.35;12.40;;;;;;;;;;5136303;27;20031;-68
2021/12/19 09:54:46;;;;;;;27.73;21.00;;;;;;;;;;5135935;27;20020;-68
2021/12/19 09:57:12;;;;;;;34.67;17.83;;;;;;;;;;5135994;27;20039;-70
2021/12/19 09:59:39;;;;;;;19.23;13.45;;;;;;;;;;5135863;27;20465;-68
2021/12/19 10:02:07;;;;;;;33.20;19.98;;;;;;;;;;5135782;27;20027;-68
2021/12/19 10:04:38;;;;;;;30.40;22.75;;;;;;;;;;5135854;27;20035;-67
2021/12/19 10:07:04;;;;;;;19.50;13.00;;;;;;;;;;5135697;27;20477;-67
2021/12/19 10:09:31;;;;;;;22.25;13.65;;;;;;;;;;5135565;27;20106;-67
2021/12/19 10:12:11;;;;;;;18.73;14.10;;;;;;;;;;5135881;27;20023;-68
2021/12/19 10:14:38;;;;;;;21.08;14.73;;;;;;;;;;5135562;27;20019;-68
2021/12/19 10:17:16;;;;;;;33.90;28.92;;;;;;;;;;5135287;27;20031;-70
2021/12/19 10:19:50;;;;;;;23.58;19.98;;;615.20;665.60;;;;;;5135228;27;20027;-69
2021/12/19 10:22:31;;;;;;;23.52;13.85;;;;;;;;;;5135557;27;20095;-69
2021/12/19 10:25:18;;;;;;;18.00;13.18;;;;;;;;;;5135845;27;20460;-69
2021/12/19 10:27:51;;;;;;;17.60;14.30;;;;;;;;;;5031957;28;20602;-67
2021/12/19 10:30:26;;;;;;;23.80;17.73;;;;;;;;;;5031816;28;20049;-69
2021/12/19 10:32:52;;;;;;;27.85;17.85;;;;;;;;;;5031707;28;20045;-68
2021/12/19 10:35:20;;;;;;;35.65;25.52;;;;;;;;;;5031901;28;20434;-65
2021/12/19 10:37:46;;;;;;;27.08;18.45;;;;;;;;;;5031788;28;20531;-70
2021/12/19 10:40:13;;;;;;;26.98;20.33;;;;;;;;;;5031979;28;20124;-70
2021/12/19 10:42:46;;;;;;;23.33;20.63;;;;;;;;;;5032054;28;20029;-64
2021/12/19 10:45:31;;;;;;;20.58;15.73;;;;;;;;;;5031886;28;20431;-71
2021/12/19 10:48:16;;;;;;;18.50;12.30;;;;;;;;;;5031371;28;20025;-69
2021/12/19 10:50:54;;;;;;;17.80;11.90;;;640.00;691.20;;;;;;5030789;28;20396;-69
2021/12/19 10:53:24;;;;;;;14.77;9.48;;;;;;;;;;5031594;28;20018;-64
2021/12/19 10:55:50;;;;;;;20.25;15.00;;;563.40;819.20;;;;;;5031600;28;20033;-69
2021/12/19 10:58:25;;;;;;;16.02;11.45;;;;;;;;;;5031428;28;20068;-71
2021/12/19 11:01:04;;;;;;;16.65;10.80;;;;;;;;;;5031384;28;20060;-67
2021/12/19 11:03:34;;;;;;;21.60;13.85;;;;;;;;;;5031300;28;20139;-69
2021/12/19 11:06:00;;;;;;;14.88;9.82;;;;;;;;;;5106438;28;20086;-69
2021/12/19 11:08:33;;;;;;;22.90;15.55;;;;;;;;;;5113985;28;20027;-68
2021/12/19 11:10:59;;;;;;;23.95;14.75;;;614.80;742.40;;;;;;5114150;28;20038;-67
2021/12/19 11:13:25;;;;;;;27.88;14.98;;;614.80;870.40;;;;;;5113770;28;20027;-65
2021/12/19 11:15:51;;;;;;;35.47;16.80;;;;;;;;;;5113567;28;20023;-63
2021/12/19 11:18:17;;;;;;;46.03;19.02;;;;;;;;;;5113458;28;20076;-66
2021/12/19 11:20:43;;;;;;;37.88;19.30;;;;;;;;;;5113720;28;20015;-67
2021/12/19 11:23:09;;;;;;;38.60;17.38;;;;;;;;;;5113956;28;20023;-67
2021/12/19 11:25:38;;;;;;;91.18;44.90;;;;;;;;;;5113617;28;20046;-67
2021/12/19 11:28:05;;;;;;;139.70;82.60;;;;;;;;;;5113652;28;20027;-68
2021/12/19 11:30:31;;;;;;;259.98;140.20;;;;;;;;;;5123885;27;20053;-69
2021/12/19 11:33:09;;;;;;;186.80;102.45;;;;;;;;;;5134029;27;20081;-69
2021/12/19 11:35:37;;;;;;;507.98;286.92;;;;;;;;;;5134053;27;20023;-69
2021/12/19 11:38:08;;;;;;;417.17;202.10;;;;;;;;;;5134344;27;20073;-70
2021/12/19 11:40:37;;;;;;;228.77;112.67;;;564.10;793.60;;;;;;5134815;27;20418;-66
2021/12/19 11:43:04;;;;;;;359.65;217.95;;;;;;;;;;5134561;27;20637;-70
2021/12/19 11:45:37;;;;;;;348.65;208.85;;;;;;;;;;5134105;27;20141;-68
2021/12/19 11:48:22;;;;;;;152.93;82.55;;;538.50;844.80;;;;;;5134049;27;20453;-70
2021/12/19 11:50:55;;;;;;;76.93;42.53;;;538.50;844.80;;;;;;5134215;27;20034;-68
2021/12/19 11:53:27;;;;;;;102.35;55.78;;;538.40;870.40;;;;;;5134148;27;20015;-69
2021/12/19 11:56:06;;;;;;;78.80;40.80;;;538.40;844.80;;;;;;5133949;27;20064;-71
2021/12/19 11:58:49;;;;;;;144.57;72.57;;;538.40;870.40;;;;;;5134157;27;20156;-69
2021/12/19 12:01:27;;;;;;;103.85;62.10;;;;;;;;;;5133296;27;20042;-72
2021/12/19 12:03:57;;;;;;;127.75;69.20;;;538.30;844.80;;;;;;5133962;27;20020;-70
2021/12/19 12:06:32;;;;;;;131.48;68.15;;;538.40;844.80;;;;;;5133560;27;20023;-68
2021/12/19 12:09:11;;;;;;;33.85;20.52;;;538.10;844.80;;;;;;5133566;27;20027;-66
2021/12/19 12:12:03;;;;;;;21.67;14.75;;;512.70;844.80;;;;;;5133644;27;20102;-70
2021/12/19 12:14:31;;;;;;;19.85;12.35;;;;;;;;;;5133535;27;20192;-67
2021/12/19 12:17:01;;;;;;;15.43;10.35;;;;;;;;;;5133055;27;20431;-69
2021/12/19 12:19:38;;;;;;;48.75;28.27;;;;;;;;;;5133107;27;20015;-70
2021/12/19 12:22:25;;;;;;;46.45;24.65;;;;;;;;;;5133435;27;20477;-70
2021/12/19 12:25:03;;;;;;;37.63;21.40;;;;;;;;;;5133560;27;20366;-70
2021/12/19 12:27:35;;;;;;;39.22;22.90;;;;;;;;;;5133350;27;20528;-64
2021/12/19 12:30:07;;;;;;;243.98;147.20;;;512.90;819.20;;;;;;5133159;27;20577;-65
2021/12/19 12:32:33;;;;;;;47.50;28.88;;;512.70;844.80;;;;;;5133261;27;20041;-69
2021/12/19 12:34:59;;;;;;;23.92;14.25;;;;;;;;;;5133270;27;20027;-69
2021/12/19 12:37:27;;;;;;;26.15;14.10;;;;;;;;;;5133197;27;20031;-71
2021/12/19 12:40:43;;;;;;;32.67;13.27;;;;;;;;;;5133171;27;20080;-69
2021/12/19 12:43:11;;;;;;;30.63;17.00;;;;;;;;;;5029853;28;20387;-70
2021/12/19 12:45:56;;;;;;;18.17;10.95;;;;;;;;;;5029874;28;20028;-70
2021/12/19 12:48:30;;;;;;;23.80;14.52;;;487.30;870.40;;;;;;5029228;28;20544;-70
2021/12/19 12:50:57;;;;;;;29.45;19.10;;;;;;;;;;5029334;28;20500;-69
2021/12/19 12:53:31;;;;;;;30.92;15.15;;;;;;;;;;5029675;28;20395;-69
2021/12/19 12:56:11;;;;;;;19.90;12.35;;;512.50;819.20;;;;;;5029981;28;20053;-66
2021/12/19 12:58:45;;;;;;;237.38;159.15;;;512.60;819.20;;;;;;5030070;28;20490;-69
2021/12/19 13:01:23;;;;;;;28.23;17.90;;;512.40;972.80;;;;;;5029802;28;20523;-68
2021/12/19 13:04:10;;;;;;;32.05;19.60;;;512.50;844.80;;;;;;5013127;28;20475;-67
2021/12/19 13:06:39;;;;;;;31.02;16.70;;;512.60;844.80;;;;;;5029805;28;20063;-70
2021/12/19 13:09:13;;;;;;;27.75;14.98;;;;;;;;;;5029696;28;20042;-69
2021/12/19 13:11:39;;;;;;;35.55;20.17;;;;;;;;;;5030019;28;20491;-70
2021/12/19 13:14:11;;;;;;;32.22;21.88;;;;;;;;;;5100667;27;20039;-70
2021/12/19 13:16:43;;;;;;;24.58;14.40;;;;;;;;;;5136975;27;20031;-68
2021/12/19 13:19:09;;;;;;;19.77;11.60;;;512.30;819.20;;;;;;5137220;27;20027;-65
2021/12/19 13:21:57;;;;;;;24.73;12.23;;;512.30;819.20;;;;;;5136899;27;20020;-62
2021/12/19 13:24:24;;;;;;;26.90;13.15;;;512.30;1382.40;;;;;;5124223;27;20012;-65
2021/12/19 13:27:03;;;;;;;40.03;15.48;;;512.10;998.40;;;;;;5105914;28;20092;-63
2021/12/19 13:29:29;;;;;;;35.65;16.70;;;487.30;2124.80;;;;;;5095425;28;20129;-68
2021/12/19 13:32:16;;;;;;;36.38;21.08;;;487.30;896.00;;;;;;5095436;28;20024;-64
2021/12/19 13:34:44;;;;;;;41.42;23.25;;;487.10;896.00;;;;;;5052296;28;20065;-63
2021/12/19 13:37:09;;;;;;;28.50;17.08;;;486.80;921.60;;;;;;5052374;28;20037;-63
2021/12/19 13:39:37;;;;;;;37.58;18.73;;;486.80;896.00;;;;;;5052263;28;20025;-63
2021/12/19 13:42:10;;;;;;;31.38;19.00;;;;;;;;;;5052756;28;20039;-68
2021/12/19 13:44:36;;;;;;;27.70;20.02;;;;;;;;;;5052301;28;20524;-62
2021/12/19 13:47:11;;;;;;;42.63;27.77;;;;;;;;;;5052265;28;20520;-67
2021/12/19 13:49:37;;;;;;;40.45;22.35;;;;;;;;;;5052061;28;20029;-68
2021/12/19 13:52:05;;;;;;;69.53;29.85;;;;;;;;;;5051200;28;20040;-71
2021/12/19 13:54:31;;;;;;;48.85;27.98;;;461.20;972.80;;;;;;5052184;28;20494;-70
2021/12/19 13:56:57;;;;;;;50.00;29.33;;;461.10;972.80;;;;;;5052244;28;20033;-62
2021/12/19 13:59:24;;;;;;;40.38;24.73;;;;;;;;;;5052026;28;20040;-69
2021/12/19 14:01:51;;;;;;;43.65;27.15;;;;;;;;;;5035198;28;20029;-68
2021/12/19 14:04:24;;;;;;;44.65;25.88;;;;;;;;;;5052437;28;20025;-69
2021/12/19 14:06:57;;;;;;;30.88;17.85;;;436.00;1024.00;;;;;;5052892;28;20522;-70
2021/12/19 14:09:24;;;;;;;31.25;15.90;;;;;;;;;;5044768;28;20030;-68
2021/12/19 14:11:56;;;;;;;29.98;15.80;;;;;;;;;;5085365;28;20044;-68
2021/12/19 14:14:30;;;;;;;27.20;16.45;;;;;;;;;;5115462;28;20074;-68
2021/12/19 14:17:29;;;;;;;31.65;18.55;;;410.30;1024.00;;;;;;5115156;28;20049;-68
2021/12/19 14:20:00;;;;;;;53.65;26.77;;;410.30;1024.00;;;;;;5031935;28;20041;-69
2021/12/19 14:22:26;;;;;;;43.55;19.90;;;;;;;;;;5015922;28;20029;-70